Time;durP1;ratioP1;P1;durP2;ratioP2;P2;SDS_P1;SDS_P2;PMS_P1;PMS_P2;Temp;Humidity;BMP_temperature;BMP_pressure;BME280_temperature;BME280_humidity;BME280_pressure;Samples;Min_cycle;Max_cycle;Signal;HPM_P1;HPM_P2
2022/04/23 00:01:20;;;;;;;28.87;25.73;;;10.40;1.00;;;;;;5046886;28;20690;-61
2022/04/23 00:03:47;;;;;;;28.20;25.00;;;10.30;1.00;;;;;;5047285;28;20749;-62
2022/04/23 00:06:14;;;;;;;32.73;26.57;;;10.30;1.00;;;;;;5048983;28;20195;-63
2022/04/23 00:08:41;;;;;;;27.37;24.43;;;10.30;1.00;;;;;;5042361;28;20187;-62
2022/04/23 00:11:08;;;;;;;28.27;25.13;;;10.30;1.00;;;;;;5051768;28;20195;-62
2022/04/23 00:13:35;;;;;;;29.20;24.80;;;10.30;1.00;;;;;;5047540;28;20242;-62
2022/04/23 00:16:02;;;;;;;29.97;24.40;;;10.30;1.00;;;;;;5047577;28;20235;-62
2022/04/23 00:18:30;;;;;;;28.93;24.97;;;10.30;1.00;;;;;;5045365;28;20227;-62
2022/04/23 00:20:57;;;;;;;30.60;24.93;;;10.30;1.00;;;;;;5047115;28;20195;-63
2022/04/23 00:23:31;;;;;;;27.80;24.80;;;10.20;1.00;;;;;;5046728;28;20776;-63
2022/04/23 00:25:58;;;;;;;30.53;24.60;;;10.20;1.00;;;;;;5045641;28;20255;-62
2022/04/23 00:28:25;;;;;;;29.20;25.30;;;10.20;1.00;;;;;;5031363;28;20257;-62
2022/04/23 00:30:52;;;;;;;28.70;24.37;;;10.20;1.00;;;;;;5049065;28;20267;-62
2022/04/23 00:33:20;;;;;;;32.80;23.97;;;10.20;1.00;;;;;;5055139;28;20215;-61
2022/04/23 00:35:49;;;;;;;29.90;24.67;;;10.30;1.00;;;;;;5063524;28;21218;-61
2022/04/23 00:38:16;;;;;;;28.43;23.33;;;10.20;1.00;;;;;;5045173;28;20223;-62
2022/04/23 00:40:44;;;;;;;30.57;24.07;;;10.20;1.00;;;;;;5059747;28;20261;-62
2022/04/23 00:43:28;;;;;;;28.40;24.77;;;10.30;1.00;;;;;;5046973;28;20210;-62
2022/04/23 00:45:56;;;;;;;27.43;23.80;;;10.30;1.00;;;;;;5065181;28;20195;-62
2022/04/23 00:48:26;;;;;;;29.03;24.40;;;10.30;1.00;;;;;;5067460;28;20199;-61
2022/04/23 00:50:56;;;;;;;27.90;24.20;;;10.20;1.00;;;;;;5041665;28;20213;-62
2022/04/23 00:53:24;;;;;;;28.87;23.30;;;10.20;1.00;;;;;;5066738;28;20195;-62
2022/04/23 00:55:52;;;;;;;26.30;23.40;;;10.30;1.00;;;;;;5066801;28;20199;-62
2022/04/23 00:58:20;;;;;;;26.97;24.03;;;10.30;1.00;;;;;;5064480;28;20325;-61
2022/04/23 01:00:47;;;;;;;27.60;23.40;;;10.50;1.00;;;;;;5064597;28;20210;-61
2022/04/23 01:03:15;;;;;;;28.70;24.17;;;10.60;1.00;;;;;;5065302;28;20199;-61
2022/04/23 01:05:46;;;;;;;27.43;23.47;;;10.70;1.00;;;;;;5063994;28;20553;-61
2022/04/23 01:08:15;;;;;;;25.43;22.60;;;10.80;1.00;;;;;;5046845;28;20198;-62
2022/04/23 01:10:45;;;;;;;26.90;23.30;;;10.80;1.00;;;;;;5065939;28;20235;-62
2022/04/23 01:13:16;;;;;;;25.80;23.03;;;10.80;1.00;;;;;;5066524;28;20527;-61
2022/04/23 01:16:04;;;;;;;25.53;22.73;;;10.80;1.00;;;;;;5068710;28;20211;-61
2022/04/23 01:18:33;;;;;;;26.10;23.17;;;10.90;1.00;;;;;;5066290;28;20214;-61
2022/04/23 01:21:04;;;;;;;25.10;22.40;;;10.90;1.00;;;;;;5048226;28;20227;-62
2022/04/23 01:23:32;;;;;;;26.17;23.07;;;11.00;1.00;;;;;;5062416;28;20214;-62
2022/04/23 01:25:59;;;;;;;30.33;23.00;;;11.10;1.00;;;;;;5046508;28;20195;-61
2022/04/23 01:28:27;;;;;;;26.27;23.43;;;11.10;1.00;;;;;;5038947;28;20257;-61
2022/04/23 01:30:59;;;;;;;29.97;22.27;;;11.10;1.00;;;;;;5048186;28;20203;-61
2022/04/23 01:33:26;;;;;;;27.40;22.13;;;11.00;1.00;;;;;;5048880;28;20790;-61
2022/04/23 01:35:53;;;;;;;27.10;22.43;;;10.90;1.00;;;;;;5032889;28;20215;-61
2022/04/23 01:38:20;;;;;;;25.20;22.07;;;10.90;1.00;;;;;;5064797;28;20214;-61
2022/04/23 01:40:47;;;;;;;26.57;22.33;;;10.90;1.00;;;;;;5066144;28;20227;-61
2022/04/23 01:43:13;;;;;;;23.57;21.03;;;10.80;1.00;;;;;;5049434;28;20192;-61
2022/04/23 01:45:40;;;;;;;24.93;22.13;;;10.80;1.00;;;;;;5032847;28;20661;-61
2022/04/23 01:48:08;;;;;;;27.67;22.67;;;10.80;1.00;;;;;;5051978;28;20203;-61
2022/04/23 01:50:34;;;;;;;26.13;23.33;;;10.70;1.00;;;;;;5068895;28;20186;-62
2022/04/23 01:53:02;;;;;;;25.47;22.10;;;10.70;1.00;;;;;;5068942;28;20658;-62
2022/04/23 01:55:30;;;;;;;26.70;23.70;;;10.60;1.00;;;;;;5069559;28;20260;-62
2022/04/23 01:57:57;;;;;;;29.93;23.57;;;10.50;1.00;;;;;;5047183;28;20299;-62
2022/04/23 02:00:25;;;;;;;26.50;22.10;;;10.50;1.00;;;;;;5068812;28;20226;-62
2022/04/23 02:02:52;;;;;;;25.90;23.10;;;10.50;1.00;;;;;;5069421;28;20199;-62
2022/04/23 02:05:19;;;;;;;25.87;22.33;;;10.40;1.00;;;;;;5069840;28;20759;-65
2022/04/23 02:07:46;;;;;;;27.20;23.60;;;10.40;1.00;;;;;;5068785;28;20234;-62
2022/04/23 02:10:14;;;;;;;26.13;23.30;;;10.30;1.00;;;;;;5049930;28;20684;-62
2022/04/23 02:12:43;;;;;;;26.87;23.93;;;10.30;1.00;;;;;;5066986;28;20260;-62
2022/04/23 02:15:11;;;;;;;27.50;24.20;;;10.20;1.00;;;;;;5068897;28;20677;-63
2022/04/23 02:17:40;;;;;;;26.37;23.57;;;10.20;1.00;;;;;;5049980;28;20268;-63
2022/04/23 02:20:10;;;;;;;26.43;23.60;;;10.20;1.00;;;;;;5066354;28;20195;-62
2022/04/23 02:22:38;;;;;;;27.90;24.90;;;10.20;14.80;;;;;;5069355;28;20424;-61
2022/04/23 02:25:06;;;;;;;27.40;23.97;;;10.10;7.10;;;;;;5067509;28;20221;-61
2022/04/23 02:27:43;;;;;;;26.37;23.53;;;10.10;86.30;;;;;;5069125;28;20240;-62
2022/04/23 02:30:16;;;;;;;27.50;24.57;;;10.00;99.90;;;;;;5067369;28;20289;-63
2022/04/23 02:32:44;;;;;;;27.83;24.70;;;10.10;84.30;;;;;;5068623;28;20195;-62
2022/04/23 02:35:12;;;;;;;34.37;26.00;;;10.10;18.20;;;;;;5068092;28;20245;-63
2022/04/23 02:37:40;;;;;;;26.13;23.33;;;10.10;31.80;;;;;;5068523;28;20222;-64
2022/04/23 02:40:08;;;;;;;28.23;23.53;;;10.10;1.00;;;;;;5063370;28;20242;-62
2022/04/23 02:42:37;;;;;;;29.87;24.60;;;10.20;1.00;;;;;;5068084;28;20317;-61
2022/04/23 02:45:06;;;;;;;29.20;23.97;;;10.10;1.00;;;;;;5051009;28;20199;-62
2022/04/23 02:47:46;;;;;;;27.00;24.17;;;10.20;1.00;;;;;;5067783;28;20207;-62
2022/04/23 02:50:15;;;;;;;27.80;24.80;;;10.20;1.00;;;;;;5068392;28;20195;-63
2022/04/23 02:52:43;;;;;;;28.77;22.97;;;10.30;1.00;;;;;;5053156;28;20637;-62
2022/04/23 02:55:11;;;;;;;27.77;24.23;;;10.30;1.00;;;;;;5063671;28;20199;-62
2022/04/23 02:57:41;;;;;;;25.80;23.03;;;10.40;1.00;;;;;;5049202;28;20214;-62
2022/04/23 03:00:12;;;;;;;27.53;24.60;;;10.40;1.00;;;;;;5050066;28;20804;-61
2022/04/23 03:02:40;;;;;;;27.20;24.17;;;10.50;1.00;;;;;;5050340;28;20270;-61
2022/04/23 03:05:14;;;;;;;27.40;24.10;;;10.50;1.00;;;;;;5069569;28;20225;-62
2022/04/23 03:07:42;;;;;;;31.57;25.40;;;10.60;1.00;;;;;;5070309;28;20202;-62
2022/04/23 03:10:11;;;;;;;29.30;24.73;;;10.60;1.00;;;;;;5048065;28;20607;-62
2022/04/23 03:12:38;;;;;;;27.60;24.60;;;10.70;1.00;;;;;;5069385;28;20693;-62
2022/04/23 03:15:11;;;;;;;27.93;24.93;;;10.80;1.00;;;;;;5067717;28;20205;-62
2022/04/23 03:17:39;;;;;;;28.40;24.93;;;10.80;1.00;;;;;;5067673;28;20210;-63
2022/04/23 03:20:10;;;;;;;28.00;24.13;;;10.90;1.00;;;;;;5067096;28;20195;-63
2022/04/23 03:22:38;;;;;;;27.10;23.90;;;10.90;1.00;;;;;;5033513;28;20194;-62
2022/04/23 03:25:11;;;;;;;28.80;25.70;;;10.90;1.00;;;;;;5064820;28;20279;-62
2022/04/23 03:27:38;;;;;;;27.80;24.27;;;11.00;1.00;;;;;;5068549;28;20210;-62
2022/04/23 03:30:05;;;;;;;27.03;24.13;;;11.00;99.90;;;;;;5068225;28;20286;-62
2022/04/23 03:32:32;;;;;;;27.60;24.33;;;11.00;99.90;;;;;;5067933;28;21028;-63
2022/04/23 03:34:59;;;;;;;28.50;25.13;;;11.00;99.90;;;;;;5068087;28;20195;-62
2022/04/23 03:37:27;;;;;;;27.93;24.93;;;11.00;99.90;;;;;;5067910;28;20210;-62
2022/04/23 03:39:55;;;;;;;29.30;26.23;;;11.00;99.90;;;;;;5045035;28;20227;-62
2022/04/23 03:42:22;;;;;;;29.20;26.03;;;10.90;99.90;;;;;;5036138;28;20229;-62
2022/04/23 03:44:49;;;;;;;28.80;24.77;;;10.90;99.90;;;;;;5046205;28;20203;-61
2022/04/23 03:47:16;;;;;;;28.50;25.37;;;10.90;99.90;;;;;;5049065;28;20199;-62
2022/04/23 03:49:43;;;;;;;32.03;27.00;;;10.90;99.90;;;;;;5046426;28;20678;-62
2022/04/23 03:52:10;;;;;;;28.60;25.47;;;10.90;99.90;;;;;;5047842;28;20204;-62
2022/04/23 03:54:38;;;;;;;30.10;26.10;;;10.90;99.90;;;;;;5037924;28;20753;-62
2022/04/23 03:57:06;;;;;;;31.20;26.27;;;10.90;99.90;;;;;;5047691;28;20199;-62
2022/04/23 03:59:35;;;;;;;33.00;25.27;;;10.90;99.90;;;;;;5038525;28;20199;-62
2022/04/23 04:02:04;;;;;;;28.80;25.57;;;10.90;99.90;;;;;;5047742;28;20199;-61
2022/04/23 04:04:32;;;;;;;29.83;26.53;;;10.80;1.00;;;;;;5045746;28;20404;-61
2022/04/23 04:07:00;;;;;;;30.30;26.53;;;10.80;1.00;;;;;;5047228;28;20220;-61
2022/04/23 04:09:28;;;;;;;29.20;25.77;;;10.90;99.90;;;;;;5044414;28;20322;-62
2022/04/23 04:12:01;;;;;;;32.13;27.73;;;10.90;1.00;;;;;;5048215;28;20203;-62
2022/04/23 04:14:33;;;;;;;31.43;26.63;;;10.80;1.00;;;;;;5047163;28;20282;-61
2022/04/23 04:17:02;;;;;;;31.03;26.23;;;10.80;1.00;;;;;;5045396;28;20239;-61
2022/04/23 04:19:32;;;;;;;32.23;27.67;;;10.90;1.00;;;;;;5038819;28;20306;-61
2022/04/23 04:22:02;;;;;;;33.03;26.87;;;10.90;99.90;;;;;;5048894;28;20525;-62
2022/04/23 04:24:31;;;;;;;29.30;26.13;;;10.90;99.90;;;;;;5047019;28;20261;-61
2022/04/23 04:26:58;;;;;;;36.00;26.07;;;10.90;99.90;;;;;;5044811;28;20593;-61
2022/04/23 04:29:25;;;;;;;28.77;25.63;;;10.90;99.90;;;;;;5045728;28;20623;-62
2022/04/23 04:31:52;;;;;;;32.07;26.60;;;10.90;99.90;;;;;;5047547;28;20204;-62
2022/04/23 04:34:30;;;;;;;33.63;27.37;;;10.90;99.90;;;;;;5062973;28;20654;-62
2022/04/23 04:37:10;;;;;;;30.80;27.53;;;10.90;99.90;;;;;;5047498;28;20249;-61
2022/04/23 04:39:39;;;;;;;30.00;26.27;;;10.90;99.90;;;;;;5048546;28;20223;-62
2022/04/23 04:42:07;;;;;;;33.37;27.77;;;10.90;99.90;;;;;;5048573;28;20248;-61
2022/04/23 04:44:35;;;;;;;32.40;26.00;;;10.90;99.90;;;;;;5066673;28;20223;-63
2022/04/23 04:47:09;;;;;;;30.87;27.13;;;10.90;99.90;;;;;;5049486;28;20288;-61
2022/04/23 04:49:37;;;;;;;32.83;26.97;;;10.90;99.90;;;;;;5066266;28;20666;-61
2022/04/23 04:52:05;;;;;;;29.97;26.67;;;10.90;99.90;;;;;;5047593;28;20234;-61
2022/04/23 04:54:32;;;;;;;32.03;27.13;;;10.90;99.90;;;;;;5066200;28;20199;-61
2022/04/23 04:57:02;;;;;;;34.10;29.00;;;10.90;99.90;;;;;;5064810;28;20723;-62
2022/04/23 04:59:32;;;;;;;30.73;27.37;;;10.90;99.90;;;;;;5046941;28;21747;-61
2022/04/23 05:02:00;;;;;;;31.83;28.33;;;10.90;99.90;;;;;;5066040;28;20712;-63
2022/04/23 05:04:28;;;;;;;29.93;26.00;;;10.90;99.90;;;;;;5065625;28;20672;-62
2022/04/23 05:06:55;;;;;;;34.23;27.50;;;11.00;99.90;;;;;;5043106;28;20210;-60
2022/04/23 05:09:22;;;;;;;31.43;27.77;;;10.90;99.90;;;;;;5047703;28;20210;-61
2022/04/23 05:11:49;;;;;;;33.37;27.87;;;10.90;99.90;;;;;;5047032;28;20662;-62
2022/04/23 05:14:18;;;;;;;30.93;27.17;;;10.90;99.90;;;;;;5047775;28;20199;-61
2022/04/23 05:16:45;;;;;;;32.10;28.23;;;11.00;99.90;;;;;;5064025;28;20294;-61
2022/04/23 05:19:12;;;;;;;31.87;27.60;;;11.10;99.90;;;;;;5065038;28;20219;-61
2022/04/23 05:21:39;;;;;;;32.57;27.40;;;11.10;99.90;;;;;;5050541;28;20195;-61
2022/04/23 05:24:06;;;;;;;31.43;26.60;;;11.20;99.90;;;;;;5060205;28;20277;-61
2022/04/23 05:26:35;;;;;;;30.67;26.80;;;11.30;99.90;;;;;;5067572;28;20745;-61
2022/04/23 05:29:03;;;;;;;33.57;26.80;;;11.30;99.90;;;;;;5069450;28;20199;-61
2022/04/23 05:31:33;;;;;;;32.47;28.30;;;11.40;93.40;;;;;;5045277;28;20685;-61
2022/04/23 05:34:00;;;;;;;31.63;26.97;;;11.50;64.70;;;;;;5049660;28;20203;-61
2022/04/23 05:36:27;;;;;;;30.03;26.83;;;11.60;27.80;;;;;;5043616;28;20308;-61
2022/04/23 05:38:55;;;;;;;30.53;27.30;;;11.70;1.00;;;;;;5035608;28;20227;-62
2022/04/23 05:41:22;;;;;;;28.77;25.50;;;12.40;1.00;;;;;;5048469;28;20219;-64
2022/04/23 05:43:49;;;;;;;28.33;24.80;;;13.40;1.00;;;;;;5051343;28;20257;-63
2022/04/23 05:46:17;;;;;;;26.90;23.83;;;14.10;99.90;;;;;;5051746;28;20225;-64
2022/04/23 05:48:44;;;;;;;27.63;23.70;;;14.60;99.90;;;;;;5051043;28;20199;-62
2022/04/23 05:51:11;;;;;;;25.67;22.87;;;14.50;99.90;;;;;;5069669;28;20278;-62
2022/04/23 05:53:38;;;;;;;26.87;23.60;;;15.00;99.90;;;;;;5069271;28;20253;-62
2022/04/23 05:56:05;;;;;;;27.17;24.27;;;15.20;18.60;;;;;;5067615;28;20199;-61
2022/04/23 05:58:36;;;;;;;25.30;22.40;;;15.30;1.00;;;;;;5070170;28;20203;-62
2022/04/23 06:01:04;;;;;;;25.73;22.93;;;15.20;1.00;;;;;;5070013;28;20260;-63
2022/04/23 06:03:32;;;;;;;26.17;23.33;;;15.30;1.00;;;;;;5068042;28;20199;-61
2022/04/23 06:05:59;;;;;;;27.87;24.97;;;15.60;1.00;;;;;;5069947;28;20626;-62
2022/04/23 06:08:26;;;;;;;26.97;23.80;;;15.50;1.00;;;;;;5068863;28;20650;-61
2022/04/23 06:10:53;;;;;;;26.50;22.93;;;15.80;1.00;;;;;;5070340;28;20199;-61
2022/04/23 06:13:20;;;;;;;25.33;22.67;;;16.10;1.00;;;;;;5051871;28;20227;-61
2022/04/23 06:15:47;;;;;;;27.53;24.60;;;16.00;1.00;;;;;;5026454;28;20256;-62
2022/04/23 06:18:14;;;;;;;26.77;23.07;;;16.10;1.00;;;;;;5050384;28;20214;-62
2022/04/23 06:20:41;;;;;;;26.53;23.77;;;16.40;1.00;;;;;;5067861;28;20226;-62
2022/04/23 06:23:08;;;;;;;26.23;23.37;;;16.10;1.00;;;;;;5068811;28;20559;-62
2022/04/23 06:25:35;;;;;;;26.40;22.60;;;16.50;1.00;;;;;;5067837;28;20202;-62
2022/04/23 06:28:02;;;;;;;25.27;22.60;;;17.20;1.00;;;;;;5034860;28;20203;-63
2022/04/23 06:30:29;;;;;;;25.85;23.05;;;17.50;1.00;;;;;;5069549;28;20279;-62
2022/04/23 06:32:56;;;;;;;25.75;22.95;;;16.70;1.00;;;;;;5067666;28;20199;-61
2022/04/23 06:35:25;;;;;;;24.85;22.17;;;17.50;1.00;;;;;;5034243;28;20241;-61
2022/04/23 06:37:54;;;;;;;25.00;22.38;;;17.50;1.00;;;;;;5049484;28;20217;-61
2022/04/23 06:40:22;;;;;;;25.33;22.63;;;17.30;1.00;;;;;;5050491;28;20669;-62
2022/04/23 06:42:49;;;;;;;24.00;21.50;;;18.00;1.00;;;;;;5066653;28;20187;-62
2022/04/23 06:45:19;;;;;;;25.10;22.52;;;19.30;1.00;;;;;;5046301;28;20241;-62
2022/04/23 06:47:46;;;;;;;25.73;22.95;;;18.20;1.00;;;;;;5050137;28;20282;-62
2022/04/23 06:50:13;;;;;;;26.48;23.63;;;18.50;1.00;;;;;;5032720;28;20252;-62
2022/04/23 06:52:40;;;;;;;25.25;22.55;;;18.00;1.00;;;;;;5066771;28;20195;-62
2022/04/23 06:55:08;;;;;;;27.23;23.27;;;18.10;1.00;;;;;;5069362;28;20817;-62
2022/04/23 06:57:45;;;;;;;25.48;21.90;;;18.60;1.00;;;;;;5069805;28;20252;-61
2022/04/23 07:00:13;;;;;;;27.88;23.17;;;18.70;1.00;;;;;;5048460;28;20207;-63
2022/04/23 07:02:40;;;;;;;33.17;22.67;;;18.80;1.00;;;;;;5050562;28;20443;-62
2022/04/23 07:05:08;;;;;;;24.92;22.23;;;19.50;1.00;;;;;;5068458;28;20623;-62
2022/04/23 07:07:35;;;;;;;25.92;23.23;;;20.10;1.00;;;;;;5016419;28;20210;-62
2022/04/23 07:10:02;;;;;;;24.75;22.05;;;18.70;1.00;;;;;;5066309;28;20613;-62
2022/04/23 07:12:29;;;;;;;25.52;22.83;;;19.90;1.00;;;;;;5066168;28;20203;-62
2022/04/23 07:14:56;;;;;;;26.00;23.20;;;19.60;1.00;;;;;;5069770;28;20199;-62
2022/04/23 07:17:26;;;;;;;27.27;24.25;;;18.00;1.00;;;;;;5068582;28;20225;-62
2022/04/23 07:19:55;;;;;;;25.60;22.90;;;18.60;1.00;;;;;;5067953;28;20226;-62
2022/04/23 07:22:22;;;;;;;26.70;23.90;;;19.60;1.00;;;;;;5025609;28;20209;-62
2022/04/23 07:24:50;;;;;;;27.60;24.60;;;19.60;1.00;;;;;;5068154;28;20274;-62
2022/04/23 07:27:17;;;;;;;27.77;23.38;;;19.50;1.00;;;;;;5033573;28;20330;-62
2022/04/23 07:29:44;;;;;;;26.38;23.58;;;19.60;1.00;;;;;;5034505;28;20207;-62
2022/04/23 07:32:11;;;;;;;27.17;24.13;;;19.50;1.00;;;;;;5065757;28;20697;-62
2022/04/23 07:37:30;;;;;;;25.92;22.95;;;19.20;1.00;;;;;;5068075;28;20183;-62
2022/04/23 07:40:10;;;;;;;24.50;21.90;;;19.80;1.00;;;;;;5050619;28;20236;-62
2022/04/23 07:42:37;;;;;;;24.90;22.30;;;20.20;99.90;;;;;;5068058;28;20225;-62
2022/04/23 07:45:05;;;;;;;25.35;22.58;;;20.50;99.90;;;;;;5055206;28;20567;-62
2022/04/23 07:47:32;;;;;;;24.65;21.88;;;20.30;99.90;;;;;;5048715;28;20191;-62
2022/04/23 07:49:59;;;;;;;25.67;22.65;;;20.30;1.00;;;;;;5047480;28;20246;-62
2022/04/23 07:52:26;;;;;;;25.10;22.40;;;20.50;99.90;;;;;;5068549;28;20254;-61
2022/04/23 07:54:53;;;;;;;28.20;24.33;;;20.30;99.90;;;;;;5049737;28;20682;-61
2022/04/23 07:57:23;;;;;;;26.33;23.58;;;20.50;99.90;;;;;;5062227;28;20238;-61
2022/04/23 07:59:50;;;;;;;24.10;21.63;;;21.20;99.90;;;;;;5064656;28;20229;-61
2022/04/23 08:02:17;;;;;;;26.23;23.42;;;20.90;99.90;;;;;;5049238;28;20505;-61
2022/04/23 08:04:45;;;;;;;25.17;22.48;;;21.40;99.90;;;;;;5048282;28;20213;-61
2022/04/23 08:07:13;;;;;;;24.42;21.83;;;22.40;99.90;;;;;;5049816;28;20587;-61
2022/04/23 08:09:40;;;;;;;25.27;22.10;;;21.30;99.90;;;;;;5064843;28;20226;-61
2022/04/23 08:12:10;;;;;;;25.75;22.45;;;20.90;99.90;;;;;;5061668;28;20191;-62
2022/04/23 08:14:38;;;;;;;24.80;21.98;;;21.00;99.90;;;;;;5059999;28;20216;-62
2022/04/23 08:17:05;;;;;;;23.70;20.90;;;21.70;99.90;;;;;;5042763;28;20205;-62
2022/04/23 08:19:33;;;;;;;25.40;21.98;;;21.90;99.90;;;;;;5061151;28;20257;-62
2022/04/23 08:22:03;;;;;;;24.05;21.55;;;21.30;99.90;;;;;;5064971;28;20199;-61
2022/04/23 08:24:33;;;;;;;25.90;23.10;;;22.70;99.90;;;;;;5057264;28;20194;-61
2022/04/23 08:27:00;;;;;;;25.38;22.67;;;22.20;99.90;;;;;;5026944;28;20191;-62
2022/04/23 08:32:14;;;;;;;26.42;22.67;;;22.00;99.90;;;;;;5013815;28;20678;-64
2022/04/23 08:34:41;;;;;;;25.60;22.77;;;21.70;99.90;;;;;;5064662;28;20199;-62
2022/04/23 08:37:08;;;;;;;27.33;23.15;;;22.30;99.90;;;;;;5047363;28;20207;-62
2022/04/23 08:39:35;;;;;;;29.95;23.30;;;21.50;99.90;;;;;;5061838;28;20748;-62
2022/04/23 08:42:04;;;;;;;27.73;22.40;;;21.50;99.90;;;;;;5066552;28;20202;-62
2022/04/23 08:44:31;;;;;;;26.38;23.10;;;21.30;99.90;;;;;;5067001;28;20249;-57
2022/04/23 08:46:59;;;;;;;26.95;22.40;;;21.40;99.90;;;;;;5048875;28;20260;-57
2022/04/23 08:49:33;;;;;;;25.95;21.95;;;21.50;99.90;;;;;;5047289;28;20198;-56
2022/04/23 08:52:21;;;;;;;23.25;19.63;;;21.40;99.90;;;;;;5049251;28;20201;-56
2022/04/23 08:54:50;;;;;;;24.95;21.85;;;22.20;99.90;;;;;;5050206;28;20264;-57
2022/04/23 08:57:17;;;;;;;24.25;21.65;;;22.40;99.90;;;;;;5069350;28;20187;-57
2022/04/23 08:59:48;;;;;;;24.05;21.58;;;23.50;99.90;;;;;;5072771;28;20260;-57
2022/04/23 09:02:15;;;;;;;23.85;21.27;;;25.10;99.90;;;;;;5070971;28;20951;-58
2022/04/23 09:04:42;;;;;;;23.45;20.92;;;25.40;99.90;;;;;;5073012;28;20198;-56
2022/04/23 09:07:23;;;;;;;23.30;20.80;;;24.60;99.90;;;;;;5070767;28;20261;-58
2022/04/23 09:09:52;;;;;;;22.98;20.38;;;24.60;99.90;;;;;;5072407;28;20226;-56
2022/04/23 09:12:24;;;;;;;23.88;21.23;;;22.40;99.90;;;;;;5071084;28;20565;-56
2022/04/23 09:14:53;;;;;;;23.73;20.05;;;21.80;99.90;;;;;;5073036;28;20756;-57
2022/04/23 09:25:43;;;;;;;27.63;21.42;;;22.40;99.90;;;;;;5073771;28;20256;-57
2022/04/23 09:28:23;;;;;;;22.70;20.02;;;21.00;99.90;;;;;;5053448;28;20199;-56
2022/04/23 09:30:54;;;;;;;25.67;21.27;;;20.70;99.90;;;;;;5072573;28;20198;-57
2022/04/23 09:33:41;;;;;;;23.88;21.38;;;22.70;99.90;;;;;;5072779;28;20205;-57
2022/04/23 09:36:08;;;;;;;23.50;20.75;;;22.70;99.90;;;;;;5072158;28;20609;-56
2022/04/23 09:38:35;;;;;;;24.00;21.48;;;21.50;99.90;;;;;;5072940;28;20253;-56
2022/04/23 09:41:15;;;;;;;24.27;21.20;;;22.60;99.90;;;;;;5060143;28;20222;-57
2022/04/23 09:43:45;;;;;;;28.92;22.17;;;23.00;99.90;;;;;;5064901;28;20195;-57
2022/04/23 09:46:12;;;;;;;26.17;21.65;;;23.10;99.90;;;;;;5063330;28;20187;-57
2022/04/23 09:48:43;;;;;;;24.25;21.40;;;23.60;99.90;;;;;;5066188;28;20260;-57
2022/04/23 09:51:24;;;;;;;21.90;19.60;;;24.20;99.90;;;;;;5067991;28;20290;-57
2022/04/23 09:53:54;;;;;;;24.25;21.75;;;22.10;99.90;;;;;;5068037;28;20194;-56
2022/04/23 09:56:23;;;;;;;24.70;22.10;;;22.50;99.90;;;;;;5069988;28;20219;-57
2022/04/23 09:58:55;;;;;;;25.63;22.77;;;20.90;99.90;;;;;;5070100;28;20583;-57
2022/04/23 10:01:25;;;;;;;34.03;23.52;;;19.30;99.90;;;;;;5032348;28;20190;-57
2022/04/23 10:03:54;;;;;;;25.60;22.80;;;18.60;99.90;;;;;;5070889;28;20187;-57
2022/04/23 10:06:22;;;;;;;28.85;24.67;;;19.20;99.90;;;;;;5072195;28;20264;-57
2022/04/23 10:08:53;;;;;;;25.42;22.73;;;18.90;99.90;;;;;;5072417;28;20278;-57
2022/04/23 10:11:28;;;;;;;31.10;23.90;;;20.30;99.90;;;;;;5070756;28;20218;-57
2022/04/23 10:14:02;;;;;;;30.92;21.77;;;21.10;99.90;;;;;;5070110;28;20198;-57
2022/04/23 10:16:30;;;;;;;27.02;22.52;;;22.20;99.90;;;;;;5067561;28;20654;-57
2022/04/23 10:18:59;;;;;;;25.52;22.73;;;21.10;99.90;;;;;;5057879;28;20195;-57
2022/04/23 10:21:46;;;;;;;25.30;20.70;;;20.80;99.90;;;;;;5040872;28;20969;-58
2022/04/23 10:24:22;;;;;;;25.08;22.33;;;21.30;99.90;;;;;;5056134;28;20221;-57
2022/04/23 10:26:50;;;;;;;24.38;21.77;;;20.60;99.90;;;;;;5076888;28;20205;-57
2022/04/23 10:29:22;;;;;;;25.35;21.30;;;20.80;99.90;;;;;;5077162;28;20591;-57
2022/04/23 10:32:24;;;;;;;24.08;20.48;;;21.10;99.90;;;;;;5074959;28;20191;-57
2022/04/23 10:34:53;;;;;;;23.83;21.15;;;22.60;99.90;;;;;;5039870;28;20203;-57
2022/04/23 10:37:29;;;;;;;23.70;21.35;;;21.90;99.90;;;;;;5071117;28;20191;-57
2022/04/23 10:39:57;;;;;;;22.55;20.15;;;21.90;99.90;;;;;;5076348;28;20241;-56
2022/04/23 10:42:25;;;;;;;23.30;20.48;;;21.40;99.90;;;;;;5073282;28;20701;-57
2022/04/23 10:45:01;;;;;;;23.95;21.35;;;20.60;99.90;;;;;;5063970;28;20282;-57
2022/04/23 10:47:32;;;;;;;23.58;21.08;;;20.70;99.90;;;;;;5070374;28;20203;-56
2022/04/23 10:50:22;;;;;;;22.75;20.33;;;21.40;99.90;;;;;;5072377;28;20187;-57
2022/04/23 10:52:53;;;;;;;24.17;19.63;;;21.20;99.90;;;;;;5072637;28;20199;-56
2022/04/23 10:55:22;;;;;;;22.25;19.20;;;21.50;99.90;;;;;;5047646;28;20547;-57
2022/04/23 10:57:54;;;;;;;21.67;19.38;;;22.10;99.90;;;;;;5070099;28;20195;-56
2022/04/23 11:00:30;;;;;;;21.85;19.60;;;21.90;99.90;;;;;;5074765;28;20257;-57
2022/04/23 11:03:07;;;;;;;22.80;20.50;;;21.30;99.90;;;;;;5079056;28;20248;-57
2022/04/23 11:14:49;;;;;;;20.88;18.67;;;21.60;99.90;;;;;;5070806;28;20266;-57
2022/04/23 11:17:44;;;;;;;19.60;17.60;;;20.70;99.90;;;;;;5068550;28;20213;-57
2022/04/23 11:20:12;;;;;;;19.98;17.88;;;20.70;99.90;;;;;;5074304;28;20210;-58
2022/04/23 11:22:39;;;;;;;18.77;16.70;;;21.10;99.90;;;;;;5073343;28;20308;-56
2022/04/23 11:25:07;;;;;;;19.50;17.58;;;21.90;99.90;;;;;;5073175;28;20318;-57
2022/04/23 11:27:36;;;;;;;20.42;18.27;;;20.50;99.90;;;;;;5068816;28;20191;-57
2022/04/23 11:30:05;;;;;;;19.05;16.88;;;20.70;99.90;;;;;;5073950;28;20268;-57
2022/04/23 11:32:34;;;;;;;19.00;16.98;;;20.90;99.90;;;;;;5052717;28;20183;-57
2022/04/23 11:35:04;;;;;;;19.00;16.98;;;20.90;99.90;;;;;;5066693;28;20248;-57
2022/04/23 11:37:35;;;;;;;18.55;16.60;;;20.80;99.90;;;;;;5042723;28;20207;-59
2022/04/23 11:40:20;;;;;;;18.08;16.27;;;20.60;99.90;;;;;;5071657;28;20260;-57
2022/04/23 11:42:47;;;;;;;16.77;15.02;;;20.50;99.90;;;;;;5067235;28;20724;-58
2022/04/23 11:45:16;;;;;;;19.63;17.52;;;20.80;99.90;;;;;;5058268;28;20252;-58
2022/04/23 11:47:43;;;;;;;19.92;17.65;;;19.90;99.90;;;;;;5070949;28;20252;-58
2022/04/23 11:50:17;;;;;;;19.35;16.70;;;20.30;99.90;;;;;;5051146;28;20641;-57
2022/04/23 11:53:01;;;;;;;17.17;15.32;;;20.30;99.90;;;;;;5070969;28;20252;-57
2022/04/23 11:55:30;;;;;;;17.60;15.73;;;20.20;99.90;;;;;;5073188;28;20599;-58
2022/04/23 11:58:01;;;;;;;17.63;15.82;;;20.30;99.90;;;;;;5059961;28;20191;-57
2022/04/23 12:00:32;;;;;;;16.38;14.23;;;20.20;99.90;;;;;;5064179;28;20217;-57
2022/04/23 12:02:59;;;;;;;16.90;15.20;;;19.90;99.90;;;;;;5063815;28;20211;-57
2022/04/23 12:05:31;;;;;;;17.00;15.18;;;20.70;99.90;;;;;;5072156;28;20201;-57
2022/04/23 12:07:59;;;;;;;15.75;14.23;;;20.70;99.90;;;;;;5071658;28;20193;-58
2022/04/23 12:10:32;;;;;;;16.25;14.30;;;21.00;99.90;;;;;;5055469;28;20281;-58
2022/04/23 12:13:08;;;;;;;16.85;14.75;;;20.60;99.90;;;;;;5069069;28;20202;-57
2022/04/23 12:15:45;;;;;;;19.88;13.77;;;20.00;99.90;;;;;;5068897;28;20221;-57
2022/04/23 12:18:19;;;;;;;15.98;14.27;;;19.90;99.90;;;;;;5043655;28;20230;-57
2022/04/23 12:20:46;;;;;;;15.02;13.27;;;19.70;99.90;;;;;;5071866;28;20238;-57
2022/04/23 12:23:13;;;;;;;16.35;14.10;;;19.90;99.90;;;;;;5056596;28;20594;-57
2022/04/23 12:25:41;;;;;;;15.02;13.43;;;19.60;99.90;;;;;;5069116;28;20226;-57
2022/04/23 12:42:10;;;;;;;15.57;14.00;;;19.10;99.90;;;;;;5041376;28;20599;-58
2022/04/23 12:44:49;;;;;;;15.18;13.60;;;19.20;99.90;;;;;;5068279;28;20205;-58
2022/04/23 12:47:26;;;;;;;14.82;13.30;;;18.80;99.90;;;;;;5066668;28;20221;-57
2022/04/23 12:49:56;;;;;;;14.52;13.02;;;18.80;99.90;;;;;;5069331;28;20612;-58
2022/04/23 12:52:27;;;;;;;15.25;13.40;;;18.80;99.90;;;;;;5051651;28;20202;-58
2022/04/23 12:55:14;;;;;;;14.60;13.00;;;18.60;99.90;;;;;;5072827;28;20187;-58
2022/04/23 12:58:04;;;;;;;15.73;13.02;;;18.60;99.90;;;;;;5071635;28;20403;-57
2022/04/23 13:00:34;;;;;;;14.57;12.40;;;18.60;99.90;;;;;;5055017;28;20218;-58
2022/04/23 13:08:55;;;;;;;13.70;12.30;;;18.80;99.90;;;;;;5069548;28;20194;-58
2022/04/23 13:11:26;;;;;;;14.30;12.40;;;18.90;99.90;;;;;;5067166;28;20244;-58
2022/04/23 13:13:59;;;;;;;13.43;12.05;;;18.70;99.90;;;;;;5067077;28;20209;-58
2022/04/23 13:16:32;;;;;;;12.90;11.63;;;18.60;99.90;;;;;;5065738;28;20206;-58
2022/04/23 13:19:00;;;;;;;12.95;11.65;;;18.70;99.90;;;;;;5063681;28;20187;-57
2022/04/23 13:21:30;;;;;;;12.32;10.55;;;18.80;99.90;;;;;;5065852;28;20686;-56
2022/04/23 13:23:58;;;;;;;14.27;10.93;;;19.30;99.90;;;;;;5050276;28;20270;-56
2022/04/23 13:26:29;;;;;;;13.30;11.95;;;19.00;99.90;;;;;;5069005;28;20688;-58